Time;durP1;ratioP1;P1;durP2;ratioP2;P2;SDS_P1;SDS_P2;PMS_P1;PMS_P2;Temp;Humidity;BMP_temperature;BMP_pressure;BME280_temperature;BME280_humidity;BME280_pressure;Samples;Min_cycle;Max_cycle;Signal;HPM_P1;HPM_P2
2023/12/09 00:02:04;;;;;;;82.63;27.60;;;8.70;99.90;;;;;;5043610;28;20045;-59
2023/12/09 00:04:30;;;;;;;84.80;27.15;;;8.70;99.90;;;;;;5041483;28;20129;-59
2023/12/09 00:06:56;;;;;;;82.78;26.38;;;8.70;99.90;;;;;;5027638;28;20037;-59
2023/12/09 00:09:21;;;;;;;86.07;27.00;;;8.70;99.90;;;;;;5044891;28;20491;-59
2023/12/09 00:11:47;;;;;;;83.47;27.48;;;8.70;99.90;;;;;;5043015;28;20044;-59
2023/12/09 00:14:13;;;;;;;65.93;25.48;;;8.70;99.90;;;;;;5043868;28;20037;-59
2023/12/09 00:16:40;;;;;;;79.75;26.90;;;8.70;99.90;;;;;;5043512;28;20396;-60
2023/12/09 00:19:07;;;;;;;74.55;26.00;;;8.70;99.90;;;;;;5026642;28;20044;-59
2023/12/09 00:21:32;;;;;;;74.43;26.50;;;8.80;99.90;;;;;;5044045;28;20148;-59
2023/12/09 00:23:59;;;;;;;80.35;28.20;;;8.80;99.90;;;;;;5044755;28;20187;-59
2023/12/09 00:26:25;;;;;;;79.30;26.45;;;8.80;99.90;;;;;;5043272;28;20072;-59
2023/12/09 00:28:50;;;;;;;80.88;29.13;;;8.80;99.90;;;;;;5043197;28;20069;-59
2023/12/09 00:31:16;;;;;;;87.15;28.92;;;8.90;99.90;;;;;;5011024;28;20464;-59
2023/12/09 00:33:42;;;;;;;76.03;28.10;;;8.90;99.90;;;;;;5042683;28;20037;-59
2023/12/09 00:36:08;;;;;;;74.95;26.63;;;8.90;99.90;;;;;;5043988;28;20476;-59
2023/12/09 00:38:33;;;;;;;75.07;27.23;;;8.90;99.90;;;;;;5026042;28;20076;-59
2023/12/09 00:40:59;;;;;;;77.60;27.55;;;8.90;99.90;;;;;;5042377;28;20076;-59
2023/12/09 00:43:25;;;;;;;86.88;29.80;;;8.90;99.90;;;;;;5041823;28;20049;-59
2023/12/09 00:45:51;;;;;;;87.55;27.70;;;8.90;99.90;;;;;;5038569;28;20717;-59
2023/12/09 00:48:16;;;;;;;74.32;27.13;;;8.90;99.90;;;;;;5039293;28;20059;-59
2023/12/09 00:50:42;;;;;;;78.00;26.10;;;8.90;99.90;;;;;;5036489;28;20095;-59
2023/12/09 00:53:08;;;;;;;75.60;26.77;;;8.90;99.90;;;;;;5024407;28;20420;-59
2023/12/09 00:55:34;;;;;;;78.75;28.48;;;8.90;99.90;;;;;;5020175;28;20082;-59
2023/12/09 00:57:59;;;;;;;76.15;26.20;;;8.90;99.90;;;;;;5022960;28;20049;-59
2023/12/09 01:00:25;;;;;;;67.55;26.50;;;8.90;99.90;;;;;;5059489;28;20055;-59
2023/12/09 01:02:51;;;;;;;71.03;27.27;;;8.90;99.90;;;;;;5024192;28;20075;-59
2023/12/09 01:05:17;;;;;;;79.43;28.63;;;8.90;99.90;;;;;;5015426;28;20081;-59
2023/12/09 01:07:43;;;;;;;80.30;28.05;;;8.90;99.90;;;;;;5022983;28;20079;-59
2023/12/09 01:10:09;;;;;;;67.57;26.35;;;8.90;99.90;;;;;;5036742;28;20045;-59
2023/12/09 01:12:35;;;;;;;66.40;25.27;;;8.90;99.90;;;;;;5041570;28;20041;-59
2023/12/09 01:15:01;;;;;;;65.28;24.38;;;8.90;99.90;;;;;;5042231;28;20044;-59
2023/12/09 01:17:26;;;;;;;64.75;25.40;;;8.90;99.90;;;;;;5040975;28;20641;-59
2023/12/09 01:19:52;;;;;;;66.03;25.48;;;8.90;99.90;;;;;;5041242;28;20400;-59
2023/12/09 01:22:18;;;;;;;67.10;24.77;;;8.90;99.90;;;;;;5017142;28;20041;-59
2023/12/09 01:24:43;;;;;;;66.82;24.45;;;8.90;99.90;;;;;;5023397;28;20071;-59
2023/12/09 01:27:09;;;;;;;66.00;24.48;;;8.90;99.90;;;;;;5039231;28;20037;-59
2023/12/09 01:29:39;;;;;;;62.20;23.95;;;8.80;99.90;;;;;;5022760;28;20110;-59
2023/12/09 01:32:05;;;;;;;68.03;23.20;;;8.80;99.90;;;;;;5022290;28;20052;-58
2023/12/09 01:34:30;;;;;;;61.60;23.65;;;8.80;99.90;;;;;;5040209;28;20091;-60
2023/12/09 01:36:56;;;;;;;60.38;23.00;;;8.80;99.90;;;;;;5041707;28;20098;-59
2023/12/09 01:39:59;;;;;;;60.85;23.45;;;8.70;99.90;;;;;;5037773;28;20056;-60
2023/12/09 01:42:25;;;;;;;67.97;22.63;;;8.70;99.90;;;;;;5036431;28;20037;-59
2023/12/09 01:44:50;;;;;;;58.25;22.17;;;8.70;99.90;;;;;;5026310;28;20047;-59
2023/12/09 01:47:16;;;;;;;61.58;22.17;;;8.70;99.90;;;;;;5037656;28;20044;-59
2023/12/09 01:49:42;;;;;;;72.70;23.48;;;8.60;99.90;;;;;;5019210;28;20504;-59
2023/12/09 01:52:08;;;;;;;67.28;22.77;;;8.70;99.90;;;;;;5036772;28;20110;-59
2023/12/09 01:54:41;;;;;;;58.88;21.05;;;8.60;99.90;;;;;;5055169;28;20044;-59
2023/12/09 01:57:07;;;;;;;66.72;21.00;;;8.60;99.90;;;;;;5039667;28;20443;-59
2023/12/09 01:59:33;;;;;;;64.07;23.05;;;8.60;99.90;;;;;;5040228;28;20450;-59
2023/12/09 02:01:59;;;;;;;66.72;21.75;;;8.60;99.90;;;;;;5025053;28;20052;-59
2023/12/09 02:04:25;;;;;;;60.67;20.85;;;8.60;99.90;;;;;;5016615;28;20075;-59
2023/12/09 02:06:51;;;;;;;60.08;21.05;;;8.60;99.90;;;;;;5005025;28;20064;-59
2023/12/09 02:09:18;;;;;;;64.53;21.88;;;8.60;99.90;;;;;;5018625;28;20488;-59
2023/12/09 02:12:03;;;;;;;54.45;20.10;;;8.60;99.90;;;;;;5016066;28;20666;-58
2023/12/09 02:14:36;;;;;;;56.10;19.88;;;8.60;99.90;;;;;;5023313;28;20084;-59
2023/12/09 02:17:25;;;;;;;55.97;19.02;;;8.60;99.90;;;;;;5025061;28;20065;-59
2023/12/09 02:19:51;;;;;;;62.30;20.83;;;8.60;99.90;;;;;;5006648;28;20083;-60
2023/12/09 02:22:17;;;;;;;55.80;19.58;;;8.60;99.90;;;;;;5022628;28;20048;-59
2023/12/09 02:24:42;;;;;;;56.78;20.73;;;8.60;99.90;;;;;;5037142;28;20500;-59
2023/12/09 02:27:21;;;;;;;60.72;20.67;;;8.60;99.90;;;;;;5020646;28;20478;-60
2023/12/09 02:29:52;;;;;;;62.55;20.23;;;8.60;99.90;;;;;;5022784;28;20122;-58
2023/12/09 02:32:23;;;;;;;55.53;21.48;;;8.60;99.90;;;;;;5039925;28;20040;-59
2023/12/09 02:34:51;;;;;;;57.60;20.15;;;8.60;99.90;;;;;;5038974;28;20048;-60
2023/12/09 02:37:20;;;;;;;53.55;19.30;;;8.60;99.90;;;;;;5021427;28;20041;-59
2023/12/09 02:39:46;;;;;;;63.47;20.27;;;8.60;99.90;;;;;;5037900;28;20056;-59
2023/12/09 02:42:14;;;;;;;47.47;19.30;;;8.60;99.90;;;;;;5021474;28;20380;-59
2023/12/09 02:44:42;;;;;;;48.20;20.45;;;8.60;99.90;;;;;;5040371;28;20076;-59
2023/12/09 02:47:14;;;;;;;56.17;20.23;;;8.60;99.90;;;;;;5018650;28;20037;-59
2023/12/09 02:49:41;;;;;;;63.60;21.73;;;8.60;99.90;;;;;;5044696;28;20029;-59
2023/12/09 02:52:07;;;;;;;56.58;20.65;;;8.60;99.90;;;;;;5037978;28;20636;-59
2023/12/09 02:54:32;;;;;;;57.33;21.65;;;8.60;99.90;;;;;;5044133;28;20098;-60
2023/12/09 02:56:58;;;;;;;64.15;21.33;;;8.60;99.90;;;;;;5011357;28;20081;-59
2023/12/09 02:59:24;;;;;;;57.40;22.80;;;8.60;99.90;;;;;;5020396;28;22223;-59
2023/12/09 03:01:49;;;;;;;64.40;23.20;;;8.60;99.90;;;;;;5041770;28;20088;-58
2023/12/09 03:04:15;;;;;;;49.72;22.65;;;8.50;99.90;;;;;;5047693;28;20056;-59
2023/12/09 03:06:41;;;;;;;48.13;20.25;;;8.50;99.90;;;;;;5029509;28;20124;-59
2023/12/09 03:09:07;;;;;;;54.00;21.63;;;8.50;99.90;;;;;;5027823;28;20045;-59
2023/12/09 03:11:32;;;;;;;60.25;21.63;;;8.50;99.90;;;;;;5047398;28;20065;-59
2023/12/09 03:13:58;;;;;;;55.85;22.60;;;8.50;99.90;;;;;;5011134;28;20674;-60
2023/12/09 03:16:24;;;;;;;58.33;21.95;;;8.40;99.90;;;;;;5025145;28;20090;-59
2023/12/09 03:18:49;;;;;;;58.22;22.20;;;8.40;99.90;;;;;;5043962;28;20037;-59
2023/12/09 03:21:15;;;;;;;64.72;23.88;;;8.40;99.90;;;;;;5026241;28;20045;-59
2023/12/09 03:23:42;;;;;;;54.97;22.02;;;8.40;99.90;;;;;;5041267;28;20048;-60
2023/12/09 03:26:15;;;;;;;52.17;21.73;;;8.40;99.90;;;;;;5041319;28;20171;-60
2023/12/09 03:28:42;;;;;;;56.40;21.17;;;8.40;99.90;;;;;;5039582;28;20381;-59
2023/12/09 03:31:12;;;;;;;58.13;23.10;;;8.40;99.90;;;;;;5045782;28;20040;-59
2023/12/09 03:33:38;;;;;;;54.22;23.02;;;8.30;99.90;;;;;;5043644;28;20029;-59
2023/12/09 03:36:05;;;;;;;58.17;23.13;;;8.30;99.90;;;;;;5025913;28;20037;-59
2023/12/09 03:38:30;;;;;;;58.72;22.42;;;8.30;99.90;;;;;;5035905;28;20080;-59
2023/12/09 03:40:56;;;;;;;53.28;21.55;;;8.30;99.90;;;;;;5043706;28;20068;-59
2023/12/09 03:43:22;;;;;;;45.25;21.27;;;8.30;99.90;;;;;;5042706;28;20148;-59
2023/12/09 03:45:47;;;;;;;60.83;24.25;;;8.30;99.90;;;;;;5019129;28;20076;-59
2023/12/09 03:48:13;;;;;;;59.55;21.83;;;8.30;99.90;;;;;;5023414;28;20094;-59
2023/12/09 03:50:39;;;;;;;57.50;23.02;;;8.30;99.90;;;;;;5022849;28;20037;-59
2023/12/09 03:53:04;;;;;;;51.65;22.20;;;8.20;99.90;;;;;;5042061;28;20048;-60
2023/12/09 03:55:30;;;;;;;60.58;23.42;;;8.20;99.90;;;;;;5021235;28;20140;-59
2023/12/09 03:57:56;;;;;;;61.78;22.42;;;8.20;99.90;;;;;;5042842;28;20045;-60
2023/12/09 04:00:25;;;;;;;59.67;23.45;;;8.30;99.90;;;;;;5040820;28;20129;-60
2023/12/09 04:02:51;;;;;;;57.08;22.65;;;8.20;99.90;;;;;;5041593;28;20048;-59
2023/12/09 04:05:16;;;;;;;52.03;22.10;;;8.20;99.90;;;;;;5021995;28;20040;-59
2023/12/09 04:07:42;;;;;;;57.65;22.63;;;8.30;99.90;;;;;;5040010;28;20669;-60
2023/12/09 04:10:09;;;;;;;59.33;23.48;;;8.20;99.90;;;;;;5022616;28;20516;-59
2023/12/09 04:12:35;;;;;;;53.25;22.92;;;8.20;99.90;;;;;;5023704;28;20103;-60
2023/12/09 04:15:01;;;;;;;55.38;23.17;;;8.20;99.90;;;;;;5043704;28;20040;-60
2023/12/09 04:17:27;;;;;;;63.13;25.05;;;8.20;99.90;;;;;;5026171;28;20112;-60
2023/12/09 04:19:52;;;;;;;54.30;22.67;;;8.20;99.90;;;;;;5041030;28;20116;-59
2023/12/09 04:22:19;;;;;;;60.92;23.95;;;8.20;99.90;;;;;;5023494;28;20427;-59
2023/12/09 04:24:45;;;;;;;58.47;24.67;;;8.20;99.90;;;;;;5038826;28;20049;-59
2023/12/09 04:27:12;;;;;;;51.45;22.92;;;8.20;99.90;;;;;;5022972;28;20049;-60
2023/12/09 04:29:38;;;;;;;50.08;22.05;;;8.20;99.90;;;;;;5058767;28;20047;-59
2023/12/09 04:32:04;;;;;;;61.75;24.45;;;8.20;99.90;;;;;;5042137;28;20040;-59
2023/12/09 04:34:30;;;;;;;47.75;22.33;;;8.20;99.90;;;;;;5043275;28;20052;-59
2023/12/09 04:36:56;;;;;;;53.67;22.83;;;8.30;99.90;;;;;;5022693;28;20036;-59
2023/12/09 04:39:22;;;;;;;64.20;23.98;;;8.20;99.90;;;;;;5039963;28;20071;-60
2023/12/09 04:42:25;;;;;;;61.47;23.15;;;8.20;99.90;;;;;;5023910;28;20049;-59
2023/12/09 04:44:50;;;;;;;56.38;21.77;;;8.30;99.90;;;;;;5040942;28;20774;-60
2023/12/09 04:47:16;;;;;;;57.70;23.25;;;8.30;99.90;;;;;;5042273;28;20071;-60
2023/12/09 04:49:42;;;;;;;56.08;25.02;;;8.30;99.90;;;;;;5024423;28;20458;-60
2023/12/09 04:52:08;;;;;;;44.28;21.35;;;8.30;99.90;;;;;;5026111;28;20515;-59
2023/12/09 04:54:34;;;;;;;53.95;22.02;;;8.30;99.90;;;;;;5038460;28;20123;-60
2023/12/09 04:56:59;;;;;;;49.78;21.30;;;8.40;99.90;;;;;;5040962;28;20204;-60
2023/12/09 04:59:25;;;;;;;58.58;22.35;;;8.40;99.90;;;;;;5022996;28;20102;-60
2023/12/09 05:01:51;;;;;;;65.53;24.42;;;8.40;99.90;;;;;;5040933;28;20110;-59
2023/12/09 05:04:17;;;;;;;57.78;23.30;;;8.40;99.90;;;;;;5025339;28;20044;-60
2023/12/09 05:06:43;;;;;;;46.78;21.90;;;8.40;99.90;;;;;;5036265;28;20038;-59
2023/12/09 05:09:10;;;;;;;51.35;22.77;;;8.40;99.90;;;;;;5045468;28;20163;-59
2023/12/09 05:11:36;;;;;;;55.22;22.25;;;8.40;99.90;;;;;;5038439;28;20044;-59
2023/12/09 05:14:02;;;;;;;70.43;22.88;;;8.40;99.90;;;;;;5036178;28;20045;-59
2023/12/09 05:16:28;;;;;;;45.10;20.85;;;8.40;99.90;;;;;;5041151;28;20079;-59
2023/12/09 05:18:54;;;;;;;52.78;21.08;;;8.40;99.90;;;;;;5021434;28;20045;-60
2023/12/09 05:21:20;;;;;;;45.25;20.25;;;8.30;99.90;;;;;;5005137;28;20048;-60
2023/12/09 05:23:46;;;;;;;51.03;20.67;;;8.30;99.90;;;;;;5034354;28;20048;-59
2023/12/09 05:26:25;;;;;;;47.30;21.40;;;8.30;99.90;;;;;;5040635;28;20040;-60
2023/12/09 05:28:52;;;;;;;44.38;20.30;;;8.30;99.90;;;;;;5039122;28;20049;-61
2023/12/09 05:31:20;;;;;;;44.35;19.48;;;8.30;99.90;;;;;;5023730;28;20146;-59
2023/12/09 05:34:30;;;;;;;52.13;20.13;;;8.30;99.90;;;;;;5042332;28;20076;-59
2023/12/09 05:36:55;;;;;;;45.53;18.60;;;8.30;99.90;;;;;;5038988;28;20132;-59
2023/12/09 05:39:22;;;;;;;53.63;21.30;;;8.20;99.90;;;;;;5031253;28;20048;-59
2023/12/09 05:41:47;;;;;;;51.92;19.70;;;8.20;99.90;;;;;;5041274;28;20057;-59
2023/12/09 05:44:13;;;;;;;52.72;19.83;;;8.20;99.90;;;;;;5020791;28;20045;-59
2023/12/09 05:46:42;;;;;;;43.83;19.50;;;8.20;99.90;;;;;;5039389;28;20099;-60
2023/12/09 05:49:08;;;;;;;43.05;19.38;;;8.20;99.90;;;;;;5022967;28;20599;-58
2023/12/09 05:51:34;;;;;;;55.78;20.08;;;8.10;99.90;;;;;;5039663;28;20040;-59
2023/12/09 05:53:59;;;;;;;44.35;18.17;;;8.10;99.90;;;;;;5041461;28;20365;-59
2023/12/09 05:56:25;;;;;;;54.00;19.75;;;8.10;99.90;;;;;;5016771;28;20095;-59
2023/12/09 05:58:51;;;;;;;48.90;19.40;;;8.10;99.90;;;;;;5041934;28;20618;-59
2023/12/09 06:01:16;;;;;;;47.65;18.85;;;8.10;99.90;;;;;;5041759;28;20480;-59
2023/12/09 06:03:42;;;;;;;43.13;19.30;;;8.10;99.90;;;;;;5043071;28;20044;-59
2023/12/09 06:06:09;;;;;;;45.05;18.63;;;8.10;99.90;;;;;;5005720;28;20052;-59
2023/12/09 06:08:35;;;;;;;46.90;18.75;;;8.10;99.90;;;;;;5003735;28;20041;-59
2023/12/09 06:11:01;;;;;;;50.10;18.70;;;8.00;99.90;;;;;;5013929;28;20044;-58
2023/12/09 06:13:27;;;;;;;47.33;19.20;;;8.10;99.90;;;;;;5025028;28;20044;-59
2023/12/09 06:15:53;;;;;;;49.53;20.23;;;8.00;99.90;;;;;;5032745;28;20056;-59
2023/12/09 06:18:19;;;;;;;47.05;18.90;;;8.10;99.90;;;;;;5022730;28;20040;-59
2023/12/09 06:20:44;;;;;;;47.53;18.98;;;8.00;99.90;;;;;;5037458;28;20671;-59
2023/12/09 06:23:10;;;;;;;38.20;17.40;;;8.00;99.90;;;;;;5043420;28;20088;-59
2023/12/09 06:25:36;;;;;;;48.92;19.70;;;8.00;99.90;;;;;;5042313;28;20107;-59
2023/12/09 06:28:02;;;;;;;43.90;18.52;;;8.00;99.90;;;;;;5028233;28;20123;-60
2023/12/09 06:30:29;;;;;;;41.05;17.60;;;8.10;99.90;;;;;;5041873;28;20849;-59
2023/12/09 06:32:54;;;;;;;46.75;19.08;;;8.10;99.90;;;;;;5011349;28;20194;-59
2023/12/09 06:35:20;;;;;;;48.72;18.45;;;8.10;99.90;;;;;;5026462;28;20033;-59
2023/12/09 06:37:46;;;;;;;44.00;18.90;;;8.00;99.90;;;;;;5059637;28;20465;-60
2023/12/09 06:40:12;;;;;;;44.80;17.58;;;8.00;99.90;;;;;;5041911;28;20381;-59
2023/12/09 06:42:38;;;;;;;52.38;17.50;;;8.00;99.90;;;;;;5012325;28;20045;-60
2023/12/09 06:45:04;;;;;;;46.38;17.60;;;8.00;99.90;;;;;;5026398;28;20041;-59
2023/12/09 06:47:30;;;;;;;48.65;17.77;;;8.00;99.90;;;;;;5041753;28;20639;-58
2023/12/09 06:49:55;;;;;;;48.63;17.13;;;8.00;99.90;;;;;;5041410;28;20037;-59
2023/12/09 06:52:21;;;;;;;54.88;18.65;;;8.00;99.90;;;;;;5041942;28;20072;-60
2023/12/09 06:54:47;;;;;;;45.13;16.60;;;8.00;99.90;;;;;;5025312;28;20056;-60
2023/12/09 06:57:12;;;;;;;40.00;15.73;;;8.00;99.90;;;;;;5042456;28;20143;-58
2023/12/09 06:59:38;;;;;;;41.97;17.13;;;8.00;99.90;;;;;;5039959;28;20038;-59
2023/12/09 07:02:04;;;;;;;43.88;18.55;;;8.00;99.90;;;;;;5024882;28;20567;-59
2023/12/09 07:04:29;;;;;;;48.33;19.48;;;8.00;99.90;;;;;;5044110;28;20043;-59
2023/12/09 07:07:00;;;;;;;49.45;18.50;;;8.00;99.90;;;;;;5025812;28;20106;-58
2023/12/09 07:09:26;;;;;;;48.00;17.73;;;8.00;99.90;;;;;;5042689;28;20069;-59
2023/12/09 07:11:51;;;;;;;49.40;20.27;;;8.00;99.90;;;;;;5045479;28;20079;-60
2023/12/09 07:14:17;;;;;;;47.58;21.02;;;8.10;99.90;;;;;;5039991;28;20078;-59
2023/12/09 07:16:43;;;;;;;39.33;18.30;;;8.10;99.90;;;;;;5043264;28;20045;-59
2023/12/09 07:19:09;;;;;;;46.65;18.13;;;8.00;99.90;;;;;;5043306;28;20048;-59
2023/12/09 07:21:34;;;;;;;42.08;17.17;;;8.10;99.90;;;;;;5007182;28;20495;-59
2023/12/09 07:24:00;;;;;;;49.95;16.38;;;8.00;99.90;;;;;;5036694;28;20032;-59
2023/12/09 07:26:26;;;;;;;38.13;16.13;;;8.10;99.90;;;;;;5041129;28;20045;-59
2023/12/09 07:28:52;;;;;;;41.00;15.77;;;8.00;99.90;;;;;;5024858;28;20403;-60
2023/12/09 07:31:18;;;;;;;42.75;15.68;;;8.10;99.90;;;;;;5028857;28;20037;-60
2023/12/09 07:33:43;;;;;;;36.60;14.98;;;8.10;99.90;;;;;;5041282;28;20045;-59
2023/12/09 07:36:09;;;;;;;39.60;15.60;;;8.10;99.90;;;;;;5024510;28;20037;-60
2023/12/09 07:38:35;;;;;;;40.00;15.70;;;8.10;99.90;;;;;;5008820;28;21401;-59
2023/12/09 07:41:01;;;;;;;41.10;15.32;;;8.10;99.90;;;;;;5039429;28;20099;-59
2023/12/09 07:43:28;;;;;;;36.65;14.93;;;8.10;99.90;;;;;;5041397;28;20049;-60
2023/12/09 07:45:53;;;;;;;39.80;15.80;;;8.10;99.90;;;;;;5041841;28;20546;-59
2023/12/09 07:48:19;;;;;;;41.15;15.85;;;8.10;99.90;;;;;;5021513;28;20037;-59
2023/12/09 07:50:45;;;;;;;51.17;16.88;;;8.10;99.90;;;;;;5044334;28;20168;-59
2023/12/09 07:53:11;;;;;;;35.50;14.30;;;8.00;99.90;;;;;;5040606;28;20353;-59
2023/12/09 07:55:37;;;;;;;48.40;14.60;;;8.10;99.90;;;;;;5021201;28;20630;-59
2023/12/09 07:58:02;;;;;;;43.33;14.38;;;8.00;99.90;;;;;;5025719;28;20051;-59
2023/12/09 08:00:28;;;;;;;38.95;14.70;;;8.10;99.90;;;;;;5040645;28;20049;-60
2023/12/09 08:02:54;;;;;;;46.90;14.77;;;8.10;99.90;;;;;;5007808;28;20053;-60
2023/12/09 08:05:21;;;;;;;38.80;13.82;;;8.10;99.90;;;;;;5021747;28;20046;-60
2023/12/09 08:07:47;;;;;;;31.67;12.90;;;8.10;99.90;;;;;;5017726;28;20518;-60
2023/12/09 08:10:13;;;;;;;45.45;13.82;;;8.10;99.90;;;;;;5043843;28;20040;-60
2023/12/09 08:12:38;;;;;;;40.63;13.48;;;8.10;99.90;;;;;;5040696;28;20056;-59
2023/12/09 08:15:05;;;;;;;45.00;14.68;;;8.10;99.90;;;;;;5023410;28;20682;-60
2023/12/09 08:17:30;;;;;;;33.80;12.63;;;8.10;99.90;;;;;;5038729;28;20120;-59
2023/12/09 08:19:56;;;;;;;28.92;12.50;;;8.10;99.90;;;;;;5040878;28;20119;-59
2023/12/09 08:22:22;;;;;;;36.38;12.68;;;8.10;99.90;;;;;;5038314;28;20060;-60
2023/12/09 08:24:47;;;;;;;38.53;12.05;;;8.20;99.90;;;;;;5024284;28;20514;-60
2023/12/09 08:27:13;;;;;;;27.60;11.70;;;8.20;99.90;;;;;;5040993;28;20044;-60
2023/12/09 08:29:39;;;;;;;35.75;11.95;;;8.20;99.90;;;;;;5039062;28;20484;-59
2023/12/09 08:32:05;;;;;;;33.30;11.70;;;8.20;99.90;;;;;;5041711;28;20118;-60
2023/12/09 08:34:30;;;;;;;31.20;11.00;;;8.20;99.90;;;;;;5016546;28;20056;-60
2023/12/09 08:36:56;;;;;;;39.80;11.68;;;8.20;99.90;;;;;;5043598;28;20033;-59
2023/12/09 08:39:23;;;;;;;29.95;10.55;;;8.20;99.90;;;;;;5042457;28;20036;-60
2023/12/09 08:41:49;;;;;;;26.50;10.27;;;8.30;99.90;;;;;;5021146;28;20037;-60
2023/12/09 08:44:14;;;;;;;37.22;11.07;;;8.20;99.90;;;;;;5023287;28;20087;-60
2023/12/09 08:46:40;;;;;;;26.33;10.20;;;8.30;99.90;;;;;;5044742;28;20053;-60
2023/12/09 08:49:06;;;;;;;27.73;10.30;;;8.30;99.90;;;;;;5020715;28;20029;-61
2023/12/09 08:51:46;;;;;;;32.45;9.98;;;8.30;99.90;;;;;;5040168;28;20630;-60
2023/12/09 08:54:11;;;;;;;31.95;9.43;;;8.30;99.90;;;;;;5043169;28;20404;-59
2023/12/09 08:56:37;;;;;;;26.58;9.95;;;8.30;99.90;;;;;;5023808;28;20037;-59
2023/12/09 08:59:07;;;;;;;35.67;10.90;;;8.30;99.90;;;;;;5041796;28;20037;-59
2023/12/09 09:01:34;;;;;;;33.58;10.40;;;8.30;99.90;;;;;;5018850;28;20037;-59
2023/12/09 09:03:59;;;;;;;26.90;10.13;;;8.30;99.90;;;;;;5039828;28;20545;-61
2023/12/09 09:06:25;;;;;;;29.52;9.95;;;8.30;99.90;;;;;;5043499;28;20045;-58
2023/12/09 09:08:51;;;;;;;22.83;9.65;;;8.30;99.90;;;;;;5042643;28;20131;-60
2023/12/09 09:11:17;;;;;;;40.83;10.57;;;8.30;99.90;;;;;;5040821;28;20041;-60
2023/12/09 09:13:42;;;;;;;30.17;10.13;;;8.30;99.90;;;;;;5040548;28;20789;-60
2023/12/09 09:16:08;;;;;;;26.75;9.30;;;8.40;99.90;;;;;;4991212;28;20495;-59
2023/12/09 09:18:34;;;;;;;27.25;9.85;;;8.30;99.90;;;;;;5039201;28;20123;-59
2023/12/09 09:20:59;;;;;;;31.20;9.32;;;8.40;99.90;;;;;;5042407;28;20041;-59
2023/12/09 09:23:25;;;;;;;30.27;9.43;;;8.30;99.90;;;;;;5039917;28;20041;-59
2023/12/09 09:25:51;;;;;;;30.52;9.07;;;8.30;99.90;;;;;;5024820;28;20056;-60
2023/12/09 09:28:17;;;;;;;28.33;8.23;;;8.40;99.90;;;;;;5038879;28;20036;-59
2023/12/09 09:30:43;;;;;;;32.13;9.32;;;8.40;99.90;;;;;;5036633;28;20065;-59
2023/12/09 09:33:09;;;;;;;24.60;8.30;;;8.40;99.90;;;;;;5022654;28;20051;-59
2023/12/09 09:35:35;;;;;;;22.00;8.07;;;8.40;99.90;;;;;;5041290;28;20330;-60
2023/12/09 09:38:01;;;;;;;26.13;8.38;;;8.40;99.90;;;;;;5037495;28;20138;-59
2023/12/09 09:40:27;;;;;;;27.08;8.02;;;8.40;99.90;;;;;;5035192;28;20655;-59
2023/12/09 09:42:58;;;;;;;24.67;8.75;;;8.40;99.90;;;;;;5036347;28;20045;-60
2023/12/09 09:45:24;;;;;;;36.72;10.23;;;8.40;99.90;;;;;;5020812;28;20037;-59
2023/12/09 09:47:52;;;;;;;29.60;8.80;;;8.40;99.90;;;;;;5037733;28;20072;-59
2023/12/09 09:50:24;;;;;;;26.20;8.13;;;8.50;99.90;;;;;;5038464;28;20396;-59
2023/12/09 09:52:50;;;;;;;28.38;8.68;;;8.40;99.90;;;;;;5036272;28;20330;-59
2023/12/09 09:55:18;;;;;;;26.88;7.70;;;8.40;99.90;;;;;;5045521;28;20064;-59
2023/12/09 09:57:44;;;;;;;32.63;8.13;;;8.40;99.90;;;;;;5027328;28;20373;-59
2023/12/09 10:00:14;;;;;;;27.27;8.02;;;8.40;99.90;;;;;;5041641;28;20108;-60
2023/12/09 10:02:48;;;;;;;28.05;7.75;;;8.40;99.90;;;;;;5024271;28;20087;-59
2023/12/09 10:05:17;;;;;;;;;;;8.50;99.90;;;;;;5047802;28;20053;-59
2023/12/09 10:07:45;;;;;;;34.35;7.55;;;8.40;99.90;;;;;;5022659;28;19924;-59
2023/12/09 10:10:13;;;;;;;23.02;7.68;;;8.40;99.90;;;;;;5024451;28;20122;-59
2023/12/09 10:13:16;;;;;;;25.63;7.32;;;8.40;99.90;;;;;;5040826;28;20050;-59
2023/12/09 10:15:42;;;;;;;24.88;7.22;;;8.40;99.90;;;;;;5037301;28;20049;-56
2023/12/09 10:18:13;;;;;;;23.27;8.02;;;8.50;99.90;;;;;;5028859;28;20089;-58
2023/12/09 10:21:18;;;;;;;21.80;9.20;;;8.50;99.90;;;;;;5042720;28;20051;-59
2023/12/09 10:23:45;;;;;;;25.10;6.88;;;8.50;99.90;;;;;;5043629;28;20103;-59
2023/12/09 10:26:11;;;;;;;26.05;7.72;;;8.50;99.90;;;;;;5044480;28;20051;-59
2023/12/09 10:28:37;;;;;;;24.05;7.28;;;8.50;99.90;;;;;;5038584;28;20067;-59
2023/12/09 10:31:03;;;;;;;18.48;6.45;;;8.50;99.90;;;;;;5021994;28;20042;-59
2023/12/09 10:33:32;;;;;;;27.80;7.15;;;8.50;99.90;;;;;;5038430;28;20063;-59
2023/12/09 10:36:00;;;;;;;26.98;7.63;;;8.50;99.90;;;;;;5024305;28;20045;-60
2023/12/09 10:38:26;;;;;;;21.33;7.00;;;8.60;99.90;;;;;;5023894;28;20045;-59
2023/12/09 10:40:55;;;;;;;26.92;7.10;;;8.60;99.90;;;;;;5029656;28;20116;-60
2023/12/09 10:43:21;;;;;;;27.13;6.93;;;8.60;99.90;;;;;;5026665;28;20049;-59
2023/12/09 10:45:47;;;;;;;24.55;6.38;;;8.60;99.90;;;;;;5037499;28;20053;-58
2023/12/09 10:48:13;;;;;;;20.60;6.43;;;8.60;99.90;;;;;;5025594;28;20059;-59
2023/12/09 10:50:39;;;;;;;28.02;9.80;;;8.70;99.90;;;;;;5037309;28;20037;-59
2023/12/09 10:53:05;;;;;;;26.48;6.78;;;8.70;99.90;;;;;;5056911;28;20066;-59
2023/12/09 10:55:31;;;;;;;28.67;6.38;;;8.70;99.90;;;;;;5037187;28;20075;-59
2023/12/09 10:58:02;;;;;;;26.42;6.55;;;8.70;99.90;;;;;;5039470;28;20112;-59
2023/12/09 11:00:30;;;;;;;23.20;5.70;;;8.70;99.90;;;;;;5043236;28;20083;-59
2023/12/09 11:02:57;;;;;;;22.00;6.38;;;8.70;99.90;;;;;;5039669;28;20045;-58
2023/12/09 11:05:23;;;;;;;24.13;6.00;;;8.70;99.90;;;;;;5046067;28;20067;-58
2023/12/09 11:07:50;;;;;;;19.90;5.78;;;8.70;99.90;;;;;;5028587;28;20037;-59
2023/12/09 11:10:16;;;;;;;22.92;5.22;;;8.70;99.90;;;;;;5043022;28;20079;-59
2023/12/09 11:12:44;;;;;;;24.17;5.38;;;8.70;99.90;;;;;;5046369;28;20072;-59
2023/12/09 11:15:13;;;;;;;19.13;5.68;;;8.70;99.90;;;;;;5044582;28;20045;-59
2023/12/09 11:17:49;;;;;;;23.65;5.60;;;8.70;99.90;;;;;;5026484;28;20120;-59
2023/12/09 11:20:18;;;;;;;18.45;7.13;;;8.70;99.90;;;;;;5045132;28;20044;-59
2023/12/09 11:22:45;;;;;;;24.55;5.60;;;8.70;99.90;;;;;;5029932;28;20037;-59
2023/12/09 11:25:17;;;;;;;21.10;6.97;;;8.70;99.90;;;;;;5039584;28;20047;-59
2023/12/09 11:27:43;;;;;;;17.98;4.65;;;8.70;99.90;;;;;;5028336;28;20041;-59
2023/12/09 11:30:28;;;;;;;19.33;5.03;;;8.70;99.90;;;;;;5021061;28;20087;-59
2023/12/09 11:32:54;;;;;;;23.58;6.55;;;8.70;99.90;;;;;;5020288;28;20053;-59
2023/12/09 11:35:21;;;;;;;17.88;4.68;;;8.70;99.90;;;;;;5044659;28;20055;-58
2023/12/09 11:37:49;;;;;;;27.67;6.38;;;8.70;99.90;;;;;;5043283;28;20056;-59
2023/12/09 11:40:15;;;;;;;16.98;4.55;;;8.70;99.90;;;;;;5048769;28;20037;-59
2023/12/09 11:42:41;;;;;;;13.60;4.75;;;8.70;99.90;;;;;;5012664;28;20053;-58
2023/12/09 11:45:08;;;;;;;14.50;4.65;;;8.70;99.90;;;;;;5044432;28;20036;-59
2023/12/09 11:47:36;;;;;;;14.88;4.30;;;8.70;99.90;;;;;;5029714;28;20413;-59
2023/12/09 11:50:02;;;;;;;20.13;4.95;;;8.70;99.90;;;;;;5042891;28;20053;-58
2023/12/09 11:52:29;;;;;;;14.60;4.00;;;8.70;99.90;;;;;;5027333;28;20668;-58
2023/12/09 11:55:03;;;;;;;17.73;4.55;;;8.70;99.90;;;;;;5045314;28;20683;-59
2023/12/09 11:57:31;;;;;;;18.15;5.38;;;8.70;99.90;;;;;;5045846;28;20048;-58
2023/12/09 11:59:57;;;;;;;15.18;4.95;;;8.70;99.90;;;;;;5029019;28;20053;-59
2023/12/09 12:02:23;;;;;;;15.73;4.38;;;8.70;99.90;;;;;;5043746;28;20037;-58
2023/12/09 12:04:49;;;;;;;13.70;3.85;;;8.70;99.90;;;;;;5046725;28;20048;-58
2023/12/09 12:07:15;;;;;;;13.00;4.28;;;8.70;99.90;;;;;;5040136;28;20529;-59
2023/12/09 12:09:41;;;;;;;17.58;5.20;;;8.70;99.90;;;;;;5029739;28;20079;-59
2023/12/09 12:12:08;;;;;;;17.40;9.30;;;8.70;99.90;;;;;;5044129;28;20128;-59
2023/12/09 12:14:35;;;;;;;20.13;9.10;;;8.70;99.90;;;;;;5043637;28;20117;-58
2023/12/09 12:17:01;;;;;;;13.27;5.20;;;8.70;99.90;;;;;;5042429;28;20451;-59
2023/12/09 12:19:28;;;;;;;18.55;4.25;;;8.70;99.90;;;;;;5044432;28;20124;-58
2023/12/09 12:21:55;;;;;;;15.43;3.65;;;8.70;99.90;;;;;;5029757;28;20048;-59
2023/12/09 12:24:21;;;;;;;10.13;3.22;;;8.80;99.90;;;;;;5037909;28;20045;-59
2023/12/09 12:26:47;;;;;;;14.65;3.80;;;8.80;99.90;;;;;;5045910;28;20136;-59
2023/12/09 12:29:20;;;;;;;25.00;9.30;;;8.70;99.90;;;;;;5026363;28;20049;-59
2023/12/09 12:31:50;;;;;;;15.13;5.88;;;8.70;99.90;;;;;;5036675;28;20060;-59
2023/12/09 12:34:17;;;;;;;14.18;3.75;;;8.80;99.90;;;;;;5039868;28;20122;-58
2023/12/09 12:36:44;;;;;;;19.83;5.50;;;8.80;99.90;;;;;;5038614;28;20697;-57
2023/12/09 12:39:12;;;;;;;16.52;4.47;;;8.70;99.90;;;;;;5035080;28;20062;-57
2023/12/09 12:41:39;;;;;;;15.63;5.13;;;8.70;99.90;;;;;;5042693;28;20049;-57